createdAt,value
2023-03-27T00:01:16.217Z,10.32
2023-03-27T00:04:31.797Z,10.30
2023-03-27T00:07:40.818Z,10.28
2023-03-27T00:11:02.799Z,10.27
2023-03-27T00:14:17.821Z,10.23
2023-03-27T00:17:33.898Z,10.25
2023-03-27T00:20:43.655Z,10.22
2023-03-27T00:23:59.823Z,10.24
2023-03-27T00:27:01.726Z,10.22
2023-03-27T00:30:17.813Z,10.18
2023-03-27T00:33:26.818Z,10.15
2023-03-27T00:36:35.441Z,10.10
2023-03-27T00:39:43.829Z,10.10
2023-03-27T00:42:52.718Z,10.09
2023-03-27T00:46:09.837Z,10.05
2023-03-27T00:49:18.443Z,10.02
2023-03-27T00:52:27.877Z,10.02
2023-03-27T00:55:38.917Z,9.95
2023-03-27T00:58:58.827Z,9.99
2023-03-27T01:02:09.863Z,10.02
2023-03-27T01:05:19.032Z,10.01
2023-03-27T01:08:36.815Z,10.00
2023-03-27T01:12:04.822Z,9.94
2023-03-27T01:15:39.635Z,9.96
2023-03-27T01:18:54.815Z,9.92
2023-03-27T01:22:38.429Z,9.88
2023-03-27T01:26:17.811Z,9.82
2023-03-27T01:29:56.824Z,9.82
2023-03-27T01:33:27.222Z,9.88
2023-03-27T01:37:05.830Z,9.90
2023-03-27T01:40:24.814Z,9.87
2023-03-27T01:43:45.808Z,9.89
2023-03-27T01:47:08.809Z,9.87
2023-03-27T01:50:38.836Z,9.91
2023-03-27T01:53:52.681Z,9.89
2023-03-27T01:57:26.829Z,9.90
2023-03-27T02:00:51.649Z,9.81
2023-03-27T02:04:09.829Z,9.74
2023-03-27T02:07:26.210Z,9.76
2023-03-27T02:10:41.836Z,9.76
2023-03-27T02:14:15.831Z,9.77
2023-03-27T02:17:26.863Z,9.78
2023-03-27T02:20:46.809Z,9.79
2023-03-27T02:23:54.840Z,9.82
2023-03-27T02:27:17.704Z,9.79
2023-03-27T02:31:05.745Z,9.76
2023-03-27T02:34:50.734Z,9.75
2023-03-27T02:38:23.854Z,9.71
2023-03-27T02:41:55.856Z,9.64
2023-03-27T02:45:33.670Z,9.65
2023-03-27T02:48:48.847Z,9.62
2023-03-27T02:52:02.509Z,9.61
2023-03-27T02:55:22.860Z,9.45
2023-03-27T02:58:45.837Z,9.53
2023-03-27T03:02:01.897Z,9.51
2023-03-27T03:05:17.838Z,9.56
2023-03-27T03:08:33.872Z,9.52
2023-03-27T03:11:58.844Z,9.49
2023-03-27T03:15:20.848Z,9.57
2023-03-27T03:18:29.822Z,9.64
2023-03-27T03:21:38.498Z,9.61
2023-03-27T03:24:46.844Z,9.62
2023-03-27T03:27:55.437Z,9.63
2023-03-27T03:34:19.565Z,9.58
2023-03-27T03:37:34.821Z,9.65
2023-03-27T03:40:44.842Z,9.66
2023-03-27T03:43:53.726Z,9.69
2023-03-27T03:47:01.835Z,9.61
2023-03-27T03:50:17.836Z,9.68
2023-03-27T03:53:27.859Z,9.66
2023-03-27T03:56:42.858Z,9.68
2023-03-27T03:59:44.897Z,9.65
2023-03-27T04:03:00.941Z,9.60
2023-03-27T04:06:09.449Z,9.57
2023-03-27T04:09:23.835Z,9.51
2023-03-27T04:12:38.847Z,9.47
2023-03-27T04:15:46.833Z,9.44
2023-03-27T04:19:01.839Z,9.41
2023-03-27T04:22:03.925Z,9.31
2023-03-27T04:25:20.867Z,9.37
2023-03-27T04:28:30.483Z,9.37
2023-03-27T04:31:38.889Z,9.41
2023-03-27T04:34:54.870Z,9.38
2023-03-27T04:38:09.872Z,9.36
2023-03-27T04:41:25.836Z,9.29
2023-03-27T04:44:27.817Z,9.31
2023-03-27T04:47:44.943Z,9.26
2023-03-27T04:50:59.806Z,9.21
2023-03-27T04:54:14.874Z,9.15
2023-03-27T04:57:16.893Z,9.19
2023-03-27T05:00:32.862Z,9.16
2023-03-27T05:03:35.303Z,9.20
2023-03-27T05:06:49.839Z,9.10
2023-03-27T05:09:58.704Z,9.04
2023-03-27T05:13:07.864Z,9.03
2023-03-27T05:16:23.169Z,8.94
2023-03-27T05:19:37.857Z,8.91
2023-03-27T05:22:46.850Z,8.90
2023-03-27T05:25:59.730Z,8.92
2023-03-27T05:29:15.817Z,8.82
2023-03-27T05:32:17.927Z,8.93
2023-03-27T05:35:33.955Z,8.98
2023-03-27T05:38:45.442Z,8.98
2023-03-27T05:41:59.830Z,9.00
2023-03-27T05:45:15.835Z,9.02
2023-03-27T05:48:30.901Z,9.03
2023-03-27T05:51:46.855Z,8.99
2023-03-27T05:54:55.841Z,9.01
2023-03-27T05:58:05.308Z,8.97
2023-03-27T06:01:13.846Z,8.89
2023-03-27T06:04:22.607Z,8.95
2023-03-27T06:07:30.822Z,8.95
2023-03-27T06:10:42.418Z,8.92
2023-03-27T06:13:50.852Z,8.98
2023-03-27T06:17:06.861Z,8.90
2023-03-27T06:20:21.841Z,9.01
2023-03-27T06:23:36.850Z,8.96
2023-03-27T06:26:38.801Z,8.64
2023-03-27T06:29:53.879Z,9.02
2023-03-27T06:32:58.117Z,9.03
2023-03-27T06:36:13.899Z,9.02
2023-03-27T06:39:28.857Z,9.04
2023-03-27T06:42:33.391Z,9.02
2023-03-27T06:45:50.833Z,9.07
2023-03-27T06:48:59.507Z,9.01
2023-03-27T06:52:07.864Z,8.99
2023-03-27T06:55:24.891Z,8.99
2023-03-27T06:58:27.141Z,9.06
2023-03-27T07:01:41.894Z,9.00
2023-03-27T07:05:01.538Z,7.64
2023-03-27T07:11:28.960Z,8.95
2023-03-27T07:14:51.882Z,8.85
2023-03-27T07:18:09.870Z,8.98
2023-03-27T07:21:24.858Z,9.04
2023-03-27T07:24:27.006Z,9.04
2023-03-27T07:27:45.083Z,9.04
2023-03-27T07:30:53.624Z,8.94
2023-03-27T07:34:10.314Z,9.08
2023-03-27T07:37:18.559Z,8.94
2023-03-27T07:40:40.467Z,8.86
2023-03-27T07:43:55.886Z,8.81
2023-03-27T07:47:10.856Z,8.92
2023-03-27T07:50:21.830Z,8.95
2023-03-27T07:53:32.670Z,8.86
2023-03-27T07:56:42.792Z,8.86
2023-03-27T07:59:57.908Z,8.85
2023-03-27T08:03:11.078Z,8.84
2023-03-27T08:06:27.869Z,8.76
2023-03-27T08:09:36.646Z,8.75
2023-03-27T08:12:45.846Z,8.76
2023-03-27T08:16:17.911Z,8.73
2023-03-27T08:19:19.961Z,8.71
2023-03-27T08:22:34.858Z,8.76
2023-03-27T08:25:56.028Z,8.68
2023-03-27T08:29:04.746Z,8.62
2023-03-27T08:32:19.860Z,8.57
2023-03-27T08:35:28.476Z,8.56
2023-03-27T08:38:42.849Z,8.55
2023-03-27T08:42:01.867Z,8.59
2023-03-27T08:45:51.949Z,8.61
2023-03-27T08:49:06.028Z,8.65
2023-03-27T08:52:23.864Z,8.58
2023-03-27T08:55:37.083Z,8.64
2023-03-27T08:58:52.892Z,8.63
2023-03-27T09:02:43.059Z,8.57
2023-03-27T09:05:57.679Z,8.65
2023-03-27T09:09:30.192Z,8.66
2023-03-27T09:13:09.874Z,8.56
2023-03-27T09:16:26.468Z,8.69
2023-03-27T09:19:47.865Z,8.73
2023-03-27T09:23:00.928Z,8.77
2023-03-27T09:26:17.026Z,8.80
2023-03-27T09:29:32.843Z,8.80
2023-03-27T09:32:35.060Z,8.82
2023-03-27T09:35:49.864Z,8.86
2023-03-27T09:39:11.921Z,8.82
2023-03-27T09:42:26.854Z,8.81
2023-03-27T09:45:38.266Z,8.80
2023-03-27T09:49:07.272Z,8.81
2023-03-27T09:52:35.756Z,8.65
2023-03-27T09:56:04.840Z,8.66
2023-03-27T09:59:38.364Z,8.59
2023-03-27T10:02:52.901Z,8.57
2023-03-27T10:06:19.907Z,8.47
2023-03-27T10:09:40.936Z,8.43
2023-03-27T10:12:50.859Z,8.50
2023-03-27T10:16:07.906Z,8.55
2023-03-27T10:19:34.591Z,8.64
2023-03-27T10:22:57.912Z,8.58
2023-03-27T10:26:17.916Z,8.55
2023-03-27T10:29:32.668Z,8.55
2023-03-27T10:32:50.962Z,8.50
2023-03-27T10:36:00.451Z,8.35
2023-03-27T10:39:16.867Z,8.35
2023-03-27T10:42:40.969Z,8.26
2023-03-27T10:45:57.757Z,8.23
2023-03-27T10:49:24.880Z,8.06
2023-03-27T10:52:58.861Z,8.28
2023-03-27T10:56:52.179Z,8.15
2023-03-27T11:00:07.360Z,8.30
2023-03-27T11:03:22.884Z,8.17
2023-03-27T11:06:44.967Z,8.22
2023-03-27T11:10:14.012Z,8.17
2023-03-27T11:13:38.957Z,8.08
2023-03-27T11:17:01.938Z,8.09
2023-03-27T11:20:30.744Z,7.97
2023-03-27T11:23:50.066Z,7.98
2023-03-27T11:27:23.847Z,7.98
2023-03-27T11:30:55.038Z,8.07
2023-03-27T11:38:21.849Z,8.17
2023-03-27T11:41:30.853Z,8.23
2023-03-27T11:44:48.471Z,8.12
2023-03-27T11:48:01.277Z,7.90
2023-03-27T11:51:25.860Z,8.02
2023-03-27T11:54:56.082Z,8.01
2023-03-27T11:58:46.874Z,8.05
2023-03-27T12:02:18.840Z,8.16
2023-03-27T12:05:56.837Z,8.22
2023-03-27T12:09:34.858Z,8.33
2023-03-27T12:13:08.881Z,8.34
2023-03-27T12:17:20.888Z,8.39
2023-03-27T12:20:53.030Z,8.50
2023-03-27T12:24:31.845Z,8.56
2023-03-27T12:27:58.952Z,8.49
2023-03-27T12:31:03.954Z,8.64
2023-03-27T12:34:55.876Z,8.70
2023-03-27T12:38:22.691Z,8.71
2023-03-27T12:41:38.943Z,8.74
2023-03-27T12:45:29.902Z,8.76
2023-03-27T12:49:13.863Z,8.73
2023-03-27T12:52:15.938Z,8.84
2023-03-27T12:55:42.856Z,8.92
2023-03-27T12:58:49.338Z,8.95
2023-03-27T13:02:10.538Z,8.90
2023-03-27T13:06:25.255Z,8.84
2023-03-27T13:10:03.370Z,8.85
2023-03-27T13:13:56.551Z,8.55
2023-03-27T13:17:31.332Z,8.52
2023-03-27T13:25:00.911Z,8.23
2023-03-27T13:28:30.854Z,8.13
2023-03-27T13:31:52.076Z,8.06
2023-03-27T13:35:15.078Z,8.05
2023-03-27T13:38:56.136Z,7.86
2023-03-27T13:42:17.857Z,7.65
2023-03-27T13:45:38.962Z,7.42
2023-03-27T13:49:21.885Z,7.45
2023-03-27T13:52:39.864Z,7.39
2023-03-27T13:55:57.054Z,7.21
2023-03-27T13:59:25.137Z,7.16
2023-03-27T14:03:20.914Z,7.06
2023-03-27T14:07:15.907Z,6.99
2023-03-27T14:10:50.968Z,6.83
2023-03-27T14:14:25.852Z,6.86
2023-03-27T14:18:26.576Z,6.77
2023-03-27T14:22:01.853Z,6.66
2023-03-27T14:25:16.913Z,6.54
2023-03-27T14:28:59.863Z,6.61
2023-03-27T14:32:21.956Z,6.72
2023-03-27T14:35:38.909Z,6.51
2023-03-27T14:38:56.903Z,6.39
2023-03-27T14:42:16.135Z,6.40
2023-03-27T14:45:29.911Z,6.24
2023-03-27T14:48:49.936Z,6.26
2023-03-27T14:52:05.883Z,6.24
2023-03-27T14:55:16.173Z,6.14
2023-03-27T14:58:31.891Z,6.14
2023-03-27T15:01:48.259Z,6.11
2023-03-27T15:05:03.798Z,6.08
2023-03-27T15:08:19.052Z,6.13
2023-03-27T15:11:40.964Z,6.07
2023-03-27T15:14:56.927Z,5.98
2023-03-27T15:18:24.886Z,5.84
2023-03-27T15:21:52.020Z,5.71
2023-03-27T15:25:13.318Z,5.66
2023-03-27T15:28:34.864Z,5.59
2023-03-27T15:31:37.608Z,5.51
2023-03-27T15:35:03.953Z,5.40
2023-03-27T15:38:14.868Z,5.27
2023-03-27T15:41:40.928Z,5.33
2023-03-27T15:44:49.904Z,5.20
2023-03-27T15:48:22.858Z,5.20
2023-03-27T15:51:31.524Z,5.16
2023-03-27T15:54:42.070Z,5.30
2023-03-27T15:57:57.241Z,5.28
2023-03-27T16:01:18.750Z,5.19
2023-03-27T16:04:47.152Z,5.22
2023-03-27T16:07:55.656Z,5.23
2023-03-27T16:11:05.164Z,5.21
2023-03-27T16:14:50.106Z,5.08
2023-03-27T16:18:03.520Z,5.04
2023-03-27T16:21:20.293Z,5.04
2023-03-27T16:24:22.677Z,5.06
2023-03-27T16:27:45.343Z,5.02
2023-03-27T16:31:01.284Z,5.07
2023-03-27T16:34:11.953Z,5.02
2023-03-27T16:37:37.842Z,4.99
2023-03-27T16:40:55.317Z,5.03
2023-03-27T16:43:57.639Z,5.05
2023-03-27T16:47:13.880Z,5.06
2023-03-27T16:50:21.932Z,5.04
2023-03-27T16:53:37.855Z,5.04
2023-03-27T16:56:54.905Z,5.04
2023-03-27T17:00:11.828Z,4.99
2023-03-27T17:03:21.921Z,5.04
2023-03-27T17:06:30.484Z,5.02
2023-03-27T17:09:46.869Z,5.00
2023-03-27T17:12:55.861Z,5.04
2023-03-27T17:16:11.469Z,5.03
2023-03-27T17:19:20.824Z,4.97
2023-03-27T17:22:29.513Z,5.01
2023-03-27T17:25:38.269Z,4.90
2023-03-27T17:28:52.884Z,4.90
2023-03-27T17:32:08.067Z,4.93
2023-03-27T17:35:16.978Z,4.88
2023-03-27T17:38:26.256Z,4.86
2023-03-27T17:41:41.162Z,4.81
2023-03-27T17:44:43.836Z,4.81
2023-03-27T17:47:59.879Z,4.75
2023-03-27T17:51:17.349Z,4.73
2023-03-27T17:54:29.853Z,4.57
2023-03-27T17:57:47.440Z,4.63
2023-03-27T18:01:18.137Z,4.66
2023-03-27T18:04:28.442Z,4.72
2023-03-27T18:07:38.446Z,4.61
2023-03-27T18:10:57.336Z,4.52
2023-03-27T18:13:59.720Z,4.48
2023-03-27T18:17:16.302Z,4.42
2023-03-27T18:20:28.366Z,4.40
2023-03-27T18:23:46.634Z,4.32
2023-03-27T18:26:55.937Z,4.34
2023-03-27T18:30:05.352Z,4.20
2023-03-27T18:33:21.367Z,4.24
2023-03-27T18:36:24.214Z,4.26
2023-03-27T18:39:39.367Z,4.23
2023-03-27T18:42:55.299Z,4.20
2023-03-27T18:46:06.319Z,4.13
2023-03-27T18:49:25.167Z,4.27
2023-03-27T18:52:35.306Z,4.24
2023-03-27T18:55:52.622Z,4.21
2023-03-27T18:59:08.370Z,4.19
2023-03-27T19:02:17.343Z,4.17
2023-03-27T19:05:27.415Z,4.12
2023-03-27T19:08:43.323Z,4.13
2023-03-27T19:11:52.722Z,4.12
2023-03-27T19:15:19.454Z,4.13
2023-03-27T19:18:35.846Z,4.09
2023-03-27T19:21:47.412Z,4.10
2023-03-27T19:25:03.277Z,4.06
2023-03-27T19:28:20.841Z,4.06
2023-03-27T19:31:37.317Z,4.07
2023-03-27T19:34:47.278Z,4.01
2023-03-27T19:37:55.875Z,4.07
2023-03-27T19:41:09.446Z,4.07
2023-03-27T19:44:24.859Z,4.01
2023-03-27T19:47:35.595Z,3.99
2023-03-27T19:50:58.109Z,3.89
2023-03-27T19:54:08.323Z,4.01
2023-03-27T19:57:25.394Z,3.96
2023-03-27T20:00:31.401Z,3.94
2023-03-27T20:03:47.396Z,3.92
2023-03-27T20:07:04.130Z,3.90
2023-03-27T20:10:07.372Z,3.91
2023-03-27T20:13:25.224Z,3.93
2023-03-27T20:16:34.969Z,3.94
2023-03-27T20:19:50.032Z,3.87
2023-03-27T20:22:58.855Z,3.81
2023-03-27T20:26:15.029Z,3.80
2023-03-27T20:29:26.939Z,3.90
2023-03-27T20:32:43.209Z,3.93
2023-03-27T20:35:58.607Z,3.90
2023-03-27T20:39:02.356Z,3.91
2023-03-27T20:42:18.845Z,3.80
2023-03-27T20:45:33.862Z,3.84
2023-03-27T20:48:53.588Z,3.85
2023-03-27T20:52:02.439Z,3.80
2023-03-27T20:55:13.343Z,3.85
2023-03-27T20:58:25.730Z,3.82
2023-03-27T21:01:41.866Z,3.83
2023-03-27T21:04:49.853Z,3.83
2023-03-27T21:08:04.861Z,3.78
2023-03-27T21:11:15.850Z,3.78
2023-03-27T21:14:30.904Z,3.78
2023-03-27T21:17:46.843Z,3.74
2023-03-27T21:20:56.840Z,3.69
2023-03-27T21:24:12.846Z,3.73
2023-03-27T21:27:21.521Z,3.59
2023-03-27T21:30:47.084Z,3.73
2023-03-27T21:34:10.880Z,3.69
2023-03-27T21:37:25.850Z,3.69
2023-03-27T21:40:36.850Z,3.63
2023-03-27T21:43:45.493Z,3.60
2023-03-27T21:46:53.844Z,3.57
2023-03-27T21:50:02.631Z,3.54
2023-03-27T21:53:18.851Z,3.57
2023-03-27T21:56:20.768Z,3.48
2023-03-27T21:59:35.853Z,3.52
2023-03-27T22:02:37.967Z,3.23
2023-03-27T22:06:08.064Z,3.49
2023-03-27T22:09:22.854Z,3.50
2023-03-27T22:12:34.086Z,3.45
2023-03-27T22:15:48.895Z,3.41
2023-03-27T22:19:04.866Z,3.46
2023-03-27T22:22:12.843Z,3.46
2023-03-27T22:25:27.836Z,3.44
2023-03-27T22:28:30.117Z,3.43
2023-03-27T22:31:45.852Z,3.41
2023-03-27T22:34:49.143Z,3.45
2023-03-27T22:38:03.848Z,3.42
2023-03-27T22:41:20.856Z,3.39
2023-03-27T22:44:29.891Z,3.27
2023-03-27T22:47:44.879Z,3.37
2023-03-27T22:51:04.814Z,3.35
2023-03-27T22:54:12.890Z,3.35
2023-03-27T22:57:21.499Z,3.38
2023-03-27T23:00:36.023Z,3.35
2023-03-27T23:03:38.631Z,3.33
2023-03-27T23:06:53.830Z,3.31
2023-03-27T23:10:02.586Z,3.20
2023-03-27T23:13:11.845Z,3.21
2023-03-27T23:16:33.859Z,3.21
2023-03-27T23:19:35.729Z,3.15
2023-03-27T23:22:50.840Z,3.19
2023-03-27T23:26:06.829Z,3.11
2023-03-27T23:29:09.498Z,3.15
2023-03-27T23:32:23.834Z,3.14
2023-03-27T23:35:32.489Z,3.13
2023-03-27T23:38:42.099Z,3.15
2023-03-27T23:41:56.830Z,3.08
2023-03-27T23:45:04.851Z,3.03
2023-03-27T23:48:20.849Z,3.02
2023-03-27T23:51:23.180Z,2.99
2023-03-27T23:54:37.842Z,2.92
2023-03-27T23:57:45.842Z,2.90
